createdAt,value
2022-10-29T00:00:20.256Z,49.30
2022-10-29T00:02:47.239Z,47.70
2022-10-29T00:05:14.469Z,44.00
2022-10-29T00:07:41.417Z,51.10
2022-10-29T00:10:09.135Z,45.00
2022-10-29T00:12:36.517Z,43.60
2022-10-29T00:15:04.049Z,47.90
2022-10-29T00:17:30.975Z,45.90
2022-10-29T00:19:57.946Z,44.60
2022-10-29T00:22:24.839Z,44.20
2022-10-29T00:24:51.746Z,38.70
2022-10-29T00:27:19.317Z,39.20
2022-10-29T00:29:46.232Z,35.00
2022-10-29T00:32:13.242Z,34.70
2022-10-29T00:34:40.237Z,35.00
2022-10-29T00:37:07.126Z,35.40
2022-10-29T00:39:34.489Z,33.60
2022-10-29T00:42:02.000Z,38.20
2022-10-29T00:44:35.325Z,34.10
2022-10-29T00:47:11.636Z,32.50
2022-10-29T00:49:38.832Z,36.80
2022-10-29T00:52:05.868Z,32.80
2022-10-29T00:54:34.406Z,38.50
2022-10-29T00:57:04.881Z,38.10
2022-10-29T00:59:31.986Z,36.00
2022-10-29T01:01:58.983Z,33.80
2022-10-29T01:04:26.035Z,34.90
2022-10-29T01:06:53.132Z,36.00
2022-10-29T01:09:20.271Z,37.80
2022-10-29T01:11:47.248Z,39.40
2022-10-29T01:14:23.516Z,43.20
2022-10-29T01:16:53.839Z,42.90
2022-10-29T01:19:24.107Z,39.20
2022-10-29T01:25:26.334Z,44.30
2022-10-29T01:31:32.941Z,54.00
2022-10-29T01:34:12.916Z,58.80
2022-10-29T01:37:00.826Z,46.10
2022-10-29T01:39:52.347Z,48.00
2022-10-29T01:42:34.766Z,47.20
2022-10-29T01:45:35.385Z,47.00
2022-10-29T01:48:13.588Z,51.80
2022-10-29T01:50:40.699Z,51.00
2022-10-29T01:53:07.900Z,47.10
2022-10-29T01:55:35.604Z,45.50
2022-10-29T01:58:06.497Z,49.90
2022-10-29T02:00:59.391Z,56.00
2022-10-29T02:04:20.994Z,54.90
2022-10-29T02:07:20.173Z,51.70
2022-10-29T02:10:02.434Z,43.50
2022-10-29T02:12:31.574Z,42.00
2022-10-29T02:15:08.304Z,35.60
2022-10-29T02:17:35.704Z,31.70
2022-10-29T02:20:07.176Z,26.40
2022-10-29T02:22:34.201Z,24.00
2022-10-29T02:25:01.297Z,37.00
2022-10-29T02:27:28.292Z,25.60
2022-10-29T02:29:55.407Z,33.80
2022-10-29T02:32:22.386Z,32.90
2022-10-29T02:34:49.363Z,34.00
2022-10-29T02:37:16.379Z,32.80
2022-10-29T02:39:43.355Z,38.40
2022-10-29T02:42:10.783Z,34.30
2022-10-29T02:44:37.968Z,29.60
2022-10-29T02:47:04.976Z,27.50
2022-10-29T02:49:32.233Z,32.40
2022-10-29T02:51:59.280Z,28.20
2022-10-29T02:54:26.266Z,28.50
2022-10-29T02:56:53.273Z,30.10
2022-10-29T02:59:20.317Z,31.10
2022-10-29T03:01:47.362Z,29.00
2022-10-29T03:04:14.761Z,35.60
2022-10-29T03:06:41.867Z,31.20
2022-10-29T03:09:08.953Z,29.10
2022-10-29T03:11:35.967Z,31.40
2022-10-29T03:14:03.042Z,39.50
2022-10-29T03:16:30.059Z,27.40
2022-10-29T03:18:57.103Z,28.60
2022-10-29T03:21:24.355Z,26.20
2022-10-29T03:23:51.328Z,25.60
2022-10-29T03:26:18.351Z,24.80
2022-10-29T03:31:13.378Z,20.30
2022-10-29T03:33:40.421Z,21.20
2022-10-29T03:36:08.135Z,20.90
2022-10-29T03:38:35.431Z,16.60
2022-10-29T03:41:02.676Z,19.20
2022-10-29T03:43:29.776Z,17.90
2022-10-29T03:45:57.694Z,18.20
2022-10-29T03:48:24.998Z,14.20
2022-10-29T03:50:55.901Z,19.10
2022-10-29T03:53:23.850Z,17.20
2022-10-29T03:55:54.343Z,20.30
2022-10-29T03:58:21.836Z,16.30
2022-10-29T04:01:02.956Z,18.70
2022-10-29T04:03:31.616Z,20.90
2022-10-29T04:05:59.361Z,20.80
2022-10-29T04:08:26.411Z,22.30
2022-10-29T04:10:53.764Z,22.70
2022-10-29T04:13:20.815Z,20.10
2022-10-29T04:15:47.881Z,18.80
2022-10-29T04:18:15.014Z,20.00
2022-10-29T04:21:03.103Z,21.60
2022-10-29T04:29:03.781Z,17.00
2022-10-29T04:31:30.862Z,17.50
2022-10-29T04:33:57.922Z,14.20
2022-10-29T04:36:24.962Z,19.40
2022-10-29T04:38:52.010Z,13.10
2022-10-29T04:41:19.086Z,17.20
2022-10-29T04:43:46.315Z,19.10
2022-10-29T04:46:13.412Z,15.80
2022-10-29T04:48:40.549Z,17.60
2022-10-29T04:51:07.649Z,19.90
2022-10-29T04:53:34.601Z,21.70
2022-10-29T04:56:02.090Z,17.40
2022-10-29T04:58:29.099Z,16.00
2022-10-29T05:01:02.666Z,17.80
2022-10-29T05:03:30.053Z,19.90
2022-10-29T05:05:57.204Z,17.60
2022-10-29T05:08:24.252Z,33.60
2022-10-29T05:10:51.197Z,20.30
2022-10-29T05:13:18.346Z,20.80
2022-10-29T05:15:53.056Z,17.70
2022-10-29T05:18:21.046Z,20.50
2022-10-29T05:20:48.088Z,23.70
2022-10-29T05:23:15.649Z,18.60
2022-10-29T05:25:43.019Z,18.30
2022-10-29T05:28:12.826Z,19.70
2022-10-29T05:30:40.171Z,26.40
2022-10-29T05:33:11.004Z,29.00
2022-10-29T05:35:38.151Z,32.60
2022-10-29T05:38:05.230Z,24.30
2022-10-29T05:40:32.449Z,37.10
2022-10-29T05:43:00.152Z,30.90
2022-10-29T05:45:27.672Z,27.90
2022-10-29T05:47:58.866Z,30.60
2022-10-29T05:50:26.135Z,27.50
2022-10-29T05:52:57.329Z,27.50
2022-10-29T05:55:24.870Z,29.10
2022-10-29T05:58:05.386Z,34.30
2022-10-29T06:00:34.816Z,34.10
2022-10-29T06:03:01.973Z,26.70
2022-10-29T06:05:29.341Z,25.00
2022-10-29T06:07:57.459Z,25.60
2022-10-29T06:10:25.482Z,23.50
2022-10-29T06:12:52.453Z,20.60
2022-10-29T06:15:19.579Z,22.90
2022-10-29T06:17:46.845Z,26.60
2022-10-29T06:20:15.431Z,32.90
2022-10-29T06:22:42.679Z,30.60
2022-10-29T06:25:10.330Z,30.10
2022-10-29T06:27:37.379Z,27.80
2022-10-29T06:30:05.552Z,30.20
2022-10-29T06:32:32.593Z,28.30
2022-10-29T06:34:59.641Z,35.60
2022-10-29T06:37:26.689Z,31.40
2022-10-29T06:39:53.865Z,25.70
2022-10-29T06:42:20.894Z,24.60
2022-10-29T06:44:47.938Z,22.10
2022-10-29T06:47:14.875Z,17.00
2022-10-29T06:49:41.947Z,20.70
2022-10-29T06:52:08.872Z,14.30
2022-10-29T06:54:35.928Z,21.60
2022-10-29T06:57:03.168Z,17.30
2022-10-29T06:59:30.327Z,19.10
2022-10-29T07:01:57.283Z,19.30
2022-10-29T07:04:24.625Z,26.80
2022-10-29T07:06:51.673Z,25.80
2022-10-29T07:09:18.606Z,22.30
2022-10-29T07:11:45.652Z,22.20
2022-10-29T07:14:12.595Z,12.50
2022-10-29T07:16:39.644Z,14.70
2022-10-29T07:19:06.760Z,18.90
2022-10-29T07:21:33.843Z,12.90
2022-10-29T07:24:03.243Z,25.50
2022-10-29T07:26:30.293Z,13.80
2022-10-29T07:28:58.057Z,17.40
2022-10-29T07:31:25.322Z,18.10
2022-10-29T07:33:52.352Z,14.80
2022-10-29T07:36:19.398Z,20.10
2022-10-29T07:38:47.067Z,19.20
2022-10-29T07:41:14.113Z,9.50
2022-10-29T07:43:41.361Z,21.70
2022-10-29T07:46:08.508Z,20.30
2022-10-29T07:48:35.597Z,17.50
2022-10-29T07:51:02.705Z,18.90
2022-10-29T07:53:31.625Z,18.00
2022-10-29T07:55:59.461Z,17.70
2022-10-29T07:58:26.713Z,20.20
2022-10-29T08:00:53.890Z,22.60
2022-10-29T08:03:21.136Z,22.00
2022-10-29T08:05:55.349Z,17.20
2022-10-29T08:08:24.382Z,20.00
2022-10-29T08:10:51.474Z,25.60
2022-10-29T08:13:18.519Z,21.40
2022-10-29T08:15:48.949Z,17.90
2022-10-29T08:18:17.023Z,15.80
2022-10-29T08:20:44.066Z,23.70
2022-10-29T08:23:30.228Z,25.50
2022-10-29T08:26:04.453Z,25.60
2022-10-29T08:28:56.168Z,21.30
2022-10-29T08:31:23.207Z,16.30
2022-10-29T08:34:32.477Z,20.30
2022-10-29T08:36:59.482Z,20.50
2022-10-29T08:39:26.841Z,21.90
2022-10-29T08:42:15.386Z,20.20
2022-10-29T08:44:54.209Z,20.50
2022-10-29T08:47:22.196Z,18.60
2022-10-29T08:50:21.264Z,25.10
2022-10-29T08:52:58.838Z,25.60
2022-10-29T08:55:36.666Z,26.80
2022-10-29T08:58:30.485Z,23.60
2022-10-29T09:00:58.409Z,26.80
2022-10-29T09:03:27.716Z,31.60
2022-10-29T09:06:08.188Z,28.30
2022-10-29T09:08:48.739Z,25.20
2022-10-29T09:11:25.002Z,23.90
2022-10-29T09:13:58.506Z,35.00
2022-10-29T09:16:32.679Z,28.90
2022-10-29T09:19:12.664Z,25.50
2022-10-29T09:21:52.658Z,22.10
2022-10-29T09:24:40.759Z,21.60
2022-10-29T09:27:16.231Z,20.50
2022-10-29T09:29:57.210Z,27.40
2022-10-29T09:32:52.904Z,29.00
2022-10-29T09:35:20.591Z,22.20
2022-10-29T09:37:56.163Z,23.30
2022-10-29T09:40:31.646Z,20.20
2022-10-29T09:43:05.582Z,17.10
2022-10-29T09:46:07.315Z,15.40
2022-10-29T09:48:41.128Z,18.60
2022-10-29T09:51:15.337Z,14.40
2022-10-29T09:53:42.284Z,14.80
2022-10-29T09:56:09.329Z,14.50
2022-10-29T09:58:38.121Z,14.90
2022-10-29T10:01:05.371Z,23.00
2022-10-29T10:03:38.072Z,18.00
2022-10-29T10:06:06.850Z,20.60
2022-10-29T10:08:34.501Z,24.00
2022-10-29T10:11:02.794Z,20.60
2022-10-29T10:13:31.937Z,25.30
2022-10-29T10:16:00.357Z,17.30
2022-10-29T10:18:47.682Z,18.60
2022-10-29T10:21:25.888Z,13.30
2022-10-29T10:23:54.057Z,16.10
2022-10-29T10:26:43.510Z,18.60
2022-10-29T10:29:16.516Z,14.60
2022-10-29T10:31:47.014Z,19.50
2022-10-29T10:34:19.517Z,20.70
2022-10-29T10:36:49.667Z,15.50
2022-10-29T10:39:21.394Z,12.80
2022-10-29T10:41:49.610Z,12.90
2022-10-29T10:44:16.615Z,11.60
2022-10-29T10:46:43.641Z,12.30
2022-10-29T10:49:30.657Z,12.30
2022-10-29T10:51:57.536Z,14.90
2022-10-29T10:54:42.217Z,12.70
2022-10-29T10:57:12.286Z,15.00
2022-10-29T11:00:18.410Z,14.90
2022-10-29T11:02:48.486Z,18.50
2022-10-29T11:05:29.266Z,15.30
2022-10-29T11:08:04.356Z,18.20
2022-10-29T11:10:34.862Z,16.90
2022-10-29T11:13:02.142Z,21.40
2022-10-29T11:15:41.052Z,18.90
2022-10-29T11:18:20.595Z,19.20
2022-10-29T11:20:51.271Z,18.50
2022-10-29T11:23:24.440Z,19.50
2022-10-29T11:26:13.372Z,18.30
2022-10-29T11:28:44.194Z,14.40
2022-10-29T11:31:19.825Z,21.80
2022-10-29T11:33:49.811Z,19.50
2022-10-29T11:36:21.057Z,20.70
2022-10-29T11:38:57.967Z,18.90
2022-10-29T11:41:34.949Z,21.10
2022-10-29T11:44:01.898Z,28.60
2022-10-29T11:46:47.042Z,23.10
2022-10-29T11:49:14.019Z,21.80
2022-10-29T11:52:08.686Z,17.60
2022-10-29T11:54:54.300Z,18.80
2022-10-29T11:57:30.608Z,20.10
2022-10-29T12:00:03.584Z,19.40
2022-10-29T12:03:13.471Z,26.30
2022-10-29T12:05:44.035Z,19.70
2022-10-29T12:08:29.613Z,25.20
2022-10-29T12:11:18.082Z,23.40
2022-10-29T12:14:16.136Z,19.70
2022-10-29T12:16:55.552Z,20.70
2022-10-29T12:19:25.342Z,20.40
2022-10-29T12:22:23.620Z,25.00
2022-10-29T12:25:18.355Z,18.50
2022-10-29T12:28:06.673Z,21.10
2022-10-29T12:30:41.234Z,21.70
2022-10-29T12:33:16.481Z,25.80
2022-10-29T12:36:12.756Z,20.60
2022-10-29T12:38:43.745Z,23.20
2022-10-29T12:41:15.726Z,25.50
2022-10-29T12:43:42.648Z,22.80
2022-10-29T12:46:20.743Z,18.30
2022-10-29T12:49:03.642Z,33.30
2022-10-29T12:51:58.435Z,27.10
2022-10-29T12:54:28.670Z,22.60
2022-10-29T12:56:57.387Z,27.20
2022-10-29T12:59:24.338Z,22.00
2022-10-29T13:04:38.928Z,30.00
2022-10-29T13:07:23.170Z,22.60
2022-10-29T13:09:50.845Z,26.80
2022-10-29T13:12:56.230Z,29.30
2022-10-29T13:15:23.591Z,26.10
2022-10-29T13:17:51.523Z,20.80
2022-10-29T13:20:28.067Z,26.40
2022-10-29T13:22:59.241Z,28.20
2022-10-29T13:25:38.302Z,27.50
2022-10-29T13:28:08.366Z,25.90
2022-10-29T13:30:35.771Z,28.30
2022-10-29T13:33:23.987Z,26.10
2022-10-29T13:36:03.965Z,37.90
2022-10-29T13:39:04.585Z,54.90
2022-10-29T13:42:35.842Z,57.70
2022-10-29T13:45:02.900Z,49.00
2022-10-29T13:55:15.788Z,42.10
2022-10-29T13:57:43.930Z,46.60
2022-10-29T14:00:11.096Z,46.50
2022-10-29T14:02:56.563Z,46.20
2022-10-29T14:05:29.813Z,38.40
2022-10-29T14:08:13.792Z,38.40
2022-10-29T14:10:40.849Z,38.10
2022-10-29T14:13:10.960Z,35.70
2022-10-29T14:15:42.717Z,27.60
2022-10-29T14:18:25.345Z,35.60
2022-10-29T14:20:56.578Z,32.10
2022-10-29T14:23:24.238Z,33.20
2022-10-29T14:25:52.241Z,37.90
2022-10-29T14:28:32.185Z,31.70
2022-10-29T14:31:00.539Z,32.90
2022-10-29T14:33:29.220Z,39.80
2022-10-29T14:36:12.849Z,44.80
2022-10-29T14:38:51.480Z,41.80
2022-10-29T14:41:18.761Z,33.00
2022-10-29T14:43:50.588Z,38.20
2022-10-29T14:46:21.630Z,39.20
2022-10-29T14:48:55.064Z,41.70
2022-10-29T14:51:22.200Z,39.20
2022-10-29T14:54:01.030Z,39.10
2022-10-29T14:56:32.367Z,38.50
2022-10-29T14:59:00.130Z,37.60
2022-10-29T15:01:27.292Z,44.70
2022-10-29T15:04:02.028Z,50.10
2022-10-29T15:06:30.250Z,47.40
2022-10-29T15:08:59.677Z,42.40
2022-10-29T15:11:40.765Z,44.90
2022-10-29T15:14:34.215Z,48.10
2022-10-29T15:19:28.114Z,62.60
2022-10-29T15:21:55.148Z,67.40
2022-10-29T15:24:22.609Z,77.30
2022-10-29T15:26:55.090Z,77.20
2022-10-29T15:29:33.485Z,67.90
2022-10-29T15:32:01.465Z,88.20
2022-10-29T15:34:33.863Z,100.30
2022-10-29T15:37:24.043Z,96.20
2022-10-29T15:39:57.217Z,89.10
2022-10-29T15:42:34.820Z,90.50
2022-10-29T15:45:08.184Z,87.90
2022-10-29T15:47:36.579Z,225.50
2022-10-29T15:50:04.960Z,123.80
2022-10-29T15:52:41.835Z,125.50
2022-10-29T15:55:26.919Z,129.20
2022-10-29T15:58:15.150Z,144.10
2022-10-29T16:00:42.607Z,288.80
2022-10-29T16:03:17.684Z,272.10
2022-10-29T16:05:49.704Z,352.30
2022-10-29T16:08:39.226Z,386.10
2022-10-29T16:11:08.673Z,360.50
2022-10-29T16:13:35.743Z,395.70
2022-10-29T16:16:02.882Z,402.10
2022-10-29T16:18:30.150Z,396.60
2022-10-29T16:20:59.823Z,394.80
2022-10-29T16:23:27.010Z,404.70
2022-10-29T16:25:54.078Z,383.80
2022-10-29T16:28:21.393Z,372.00
2022-10-29T16:30:51.001Z,356.60
2022-10-29T16:33:18.047Z,331.10
2022-10-29T16:35:45.103Z,300.50
2022-10-29T16:38:12.861Z,315.80
2022-10-29T16:40:39.860Z,305.10
2022-10-29T16:43:06.852Z,270.10
2022-10-29T16:45:33.896Z,243.00
2022-10-29T16:48:01.134Z,235.30
2022-10-29T16:50:29.526Z,235.50
2022-10-29T16:53:07.435Z,233.10
2022-10-29T16:55:36.024Z,222.90
2022-10-29T16:58:02.962Z,224.30
2022-10-29T17:00:36.559Z,229.10
2022-10-29T17:03:10.101Z,221.60
2022-10-29T17:05:40.385Z,216.50
2022-10-29T17:08:07.650Z,215.30
2022-10-29T17:10:35.210Z,221.50
2022-10-29T17:13:02.656Z,189.40
2022-10-29T17:15:29.799Z,191.30
2022-10-29T17:17:57.183Z,163.00
2022-10-29T17:20:26.794Z,163.30
2022-10-29T17:22:53.808Z,145.10
2022-10-29T17:25:20.957Z,161.50
2022-10-29T17:27:47.969Z,153.00
2022-10-29T17:30:15.259Z,163.10
2022-10-29T17:32:42.301Z,153.80
2022-10-29T17:35:09.781Z,177.50
2022-10-29T17:37:36.909Z,193.60
2022-10-29T17:40:07.939Z,183.80
2022-10-29T17:42:40.237Z,208.50
2022-10-29T17:45:08.467Z,214.50
2022-10-29T17:47:35.504Z,217.20
2022-10-29T17:50:02.794Z,223.20
2022-10-29T17:52:29.841Z,194.30
2022-10-29T17:54:56.788Z,191.80
2022-10-29T17:57:23.934Z,189.00
2022-10-29T17:59:50.985Z,181.80
2022-10-29T18:02:18.132Z,168.90
2022-10-29T18:04:46.203Z,157.60
2022-10-29T18:07:13.659Z,153.30
2022-10-29T18:09:40.605Z,142.20
2022-10-29T18:12:08.097Z,145.30
2022-10-29T18:14:35.110Z,136.30
2022-10-29T18:17:03.013Z,127.00
2022-10-29T18:19:30.258Z,131.80
2022-10-29T18:21:57.478Z,116.60
2022-10-29T18:24:24.864Z,117.00
2022-10-29T18:26:51.884Z,124.70
2022-10-29T18:29:18.945Z,121.70
2022-10-29T18:31:47.068Z,121.50
2022-10-29T18:34:15.327Z,117.30
2022-10-29T18:36:43.217Z,110.40
2022-10-29T18:39:10.294Z,112.40
2022-10-29T18:41:37.545Z,97.50
2022-10-29T18:44:05.001Z,100.20
2022-10-29T18:46:32.353Z,82.10
2022-10-29T18:49:00.698Z,86.60
2022-10-29T18:51:30.690Z,59.30
2022-10-29T18:53:58.255Z,68.10
2022-10-29T18:56:26.693Z,56.00
2022-10-29T18:58:55.888Z,62.50
2022-10-29T19:01:24.846Z,55.90
2022-10-29T19:03:56.763Z,47.10
2022-10-29T19:06:25.239Z,40.50
2022-10-29T19:08:52.373Z,45.10
2022-10-29T19:11:21.588Z,37.60
2022-10-29T19:13:52.862Z,35.30
2022-10-29T19:16:20.001Z,36.10
2022-10-29T19:18:47.116Z,34.30
2022-10-29T19:21:15.863Z,36.50
2022-10-29T19:23:43.259Z,31.70
2022-10-29T19:26:12.095Z,38.20
2022-10-29T19:29:10.420Z,39.80
2022-10-29T19:31:48.782Z,40.00
2022-10-29T19:37:40.787Z,51.20
2022-10-29T19:40:26.410Z,47.10
2022-10-29T19:46:46.037Z,45.70
2022-10-29T19:49:13.049Z,53.60
2022-10-29T19:51:40.734Z,50.00
2022-10-29T19:54:08.378Z,55.30
2022-10-29T19:56:35.526Z,45.10
2022-10-29T19:59:04.206Z,50.50
2022-10-29T20:01:31.379Z,52.00
2022-10-29T20:03:58.579Z,54.20
2022-10-29T20:06:25.660Z,60.90
2022-10-29T20:08:52.830Z,97.20
2022-10-29T20:11:19.955Z,174.30
2022-10-29T20:13:46.937Z,141.70
2022-10-29T20:16:16.506Z,129.30
2022-10-29T20:18:43.662Z,129.50
2022-10-29T20:21:10.704Z,119.90
2022-10-29T20:23:37.755Z,107.60
2022-10-29T20:26:04.899Z,107.00
2022-10-29T20:28:31.800Z,97.80
2022-10-29T20:31:17.457Z,99.10
2022-10-29T20:33:51.179Z,86.50
2022-10-29T20:36:18.409Z,78.10
2022-10-29T20:38:49.153Z,86.70
2022-10-29T20:41:16.677Z,77.20
2022-10-29T20:43:44.850Z,62.70
2022-10-29T20:46:11.997Z,62.00
2022-10-29T20:48:39.045Z,51.40
2022-10-29T20:51:06.545Z,52.30
2022-10-29T20:53:33.551Z,53.40
2022-10-29T20:56:00.631Z,54.10
2022-10-29T20:58:27.747Z,41.40
2022-10-29T21:00:54.849Z,63.00
2022-10-29T21:03:22.047Z,49.00
2022-10-29T21:05:49.015Z,49.10
2022-10-29T21:08:16.108Z,42.10
2022-10-29T21:10:43.186Z,38.80
2022-10-29T21:13:10.241Z,35.80
2022-10-29T21:15:37.299Z,61.80
2022-10-29T21:18:04.948Z,47.10
2022-10-29T21:20:32.703Z,39.70
2022-10-29T21:23:00.166Z,35.60
2022-10-29T21:25:29.976Z,30.20
2022-10-29T21:27:57.291Z,27.50
2022-10-29T21:30:24.586Z,31.10
2022-10-29T21:32:52.380Z,30.40
2022-10-29T21:35:19.401Z,26.80
2022-10-29T21:37:46.465Z,23.60
2022-10-29T21:40:13.800Z,25.10
2022-10-29T21:42:40.842Z,29.80
2022-10-29T21:45:08.503Z,23.20
2022-10-29T21:47:35.551Z,15.80
2022-10-29T21:50:02.699Z,17.70
2022-10-29T21:52:29.850Z,19.50
2022-10-29T21:54:56.794Z,14.70
2022-10-29T21:57:23.875Z,20.00
2022-10-29T21:59:50.998Z,17.80
2022-10-29T22:02:18.101Z,17.10
2022-10-29T22:04:45.190Z,17.10
2022-10-29T22:07:12.149Z,21.10
2022-10-29T22:09:39.180Z,15.40
2022-10-29T22:12:06.656Z,16.20
2022-10-29T22:14:33.804Z,14.20
2022-10-29T22:17:00.746Z,14.40
2022-10-29T22:19:27.776Z,16.10
2022-10-29T22:21:55.996Z,19.80
2022-10-29T22:24:22.999Z,17.20
2022-10-29T22:26:50.056Z,15.50
2022-10-29T22:29:17.099Z,15.80
2022-10-29T22:31:44.044Z,17.90
2022-10-29T22:34:11.294Z,21.50
2022-10-29T22:36:39.057Z,23.20
2022-10-29T22:39:06.106Z,16.50
2022-10-29T22:41:33.047Z,17.10
2022-10-29T22:44:01.130Z,23.10
2022-10-29T22:46:28.577Z,20.40
2022-10-29T22:48:55.749Z,20.30
2022-10-29T22:51:24.409Z,16.90
2022-10-29T22:53:52.173Z,16.60
2022-10-29T22:56:21.201Z,20.60
2022-10-29T22:58:48.214Z,16.00
2022-10-29T23:01:20.044Z,13.50
2022-10-29T23:03:47.654Z,17.60
2022-10-29T23:06:16.321Z,20.70
2022-10-29T23:08:44.500Z,27.00
2022-10-29T23:11:19.897Z,23.40
2022-10-29T23:13:52.617Z,27.00
2022-10-29T23:18:50.777Z,21.10
2022-10-29T23:21:17.959Z,25.50
2022-10-29T23:23:45.006Z,24.10
2022-10-29T23:26:12.459Z,23.20
2022-10-29T23:28:39.918Z,20.30
2022-10-29T23:31:10.666Z,21.60
2022-10-29T23:33:37.713Z,24.00
2022-10-29T23:36:05.972Z,21.90
2022-10-29T23:38:33.374Z,25.50
2022-10-29T23:41:00.967Z,21.60
2022-10-29T23:43:28.142Z,20.10
2022-10-29T23:45:55.186Z,25.00
2022-10-29T23:48:22.276Z,28.40
2022-10-29T23:50:49.386Z,27.40
2022-10-29T23:53:16.569Z,28.50
2022-10-29T23:55:43.788Z,26.90
2022-10-29T23:58:11.140Z,36.20
